sensor_id;sensor_type;location;lat;lon;timestamp;P1;durP1;ratioP1;P2;durP2;ratioP2
49488;SDS011;35382;51.484;11.476;2023-07-13T00:01:00;6.95;;;2.40;;
49488;SDS011;35382;51.484;11.476;2023-07-13T00:02:41;5.70;;;2.30;;
49488;SDS011;35382;51.484;11.476;2023-07-13T00:04:23;4.85;;;2.30;;
49488;SDS011;35382;51.484;11.476;2023-07-13T00:06:05;6.07;;;2.35;;
49488;SDS011;35382;51.484;11.476;2023-07-13T00:07:47;5.55;;;2.42;;
49488;SDS011;35382;51.484;11.476;2023-07-13T00:09:28;6.63;;;2.13;;
49488;SDS011;35382;51.484;11.476;2023-07-13T00:11:09;5.55;;;2.42;;
49488;SDS011;35382;51.484;11.476;2023-07-13T00:12:51;6.32;;;2.22;;
49488;SDS011;35382;51.484;11.476;2023-07-13T00:14:35;4.72;;;2.10;;
49488;SDS011;35382;51.484;11.476;2023-07-13T00:16:16;6.50;;;2.72;;
49488;SDS011;35382;51.484;11.476;2023-07-13T00:17:57;6.38;;;2.30;;
49488;SDS011;35382;51.484;11.476;2023-07-13T00:19:38;5.22;;;2.25;;
49488;SDS011;35382;51.484;11.476;2023-07-13T00:21:19;5.43;;;2.42;;
49488;SDS011;35382;51.484;11.476;2023-07-13T00:22:59;6.20;;;2.53;;
49488;SDS011;35382;51.484;11.476;2023-07-13T00:24:40;3.95;;;2.33;;
49488;SDS011;35382;51.484;11.476;2023-07-13T00:26:22;5.03;;;2.40;;
49488;SDS011;35382;51.484;11.476;2023-07-13T00:28:03;5.75;;;2.28;;
49488;SDS011;35382;51.484;11.476;2023-07-13T00:29:44;6.45;;;2.50;;
49488;SDS011;35382;51.484;11.476;2023-07-13T00:31:26;6.25;;;2.20;;
49488;SDS011;35382;51.484;11.476;2023-07-13T00:33:07;4.95;;;2.50;;
49488;SDS011;35382;51.484;11.476;2023-07-13T00:34:48;5.25;;;2.42;;
49488;SDS011;35382;51.484;11.476;2023-07-13T00:36:31;5.38;;;2.30;;
49488;SDS011;35382;51.484;11.476;2023-07-13T00:38:12;5.10;;;2.33;;
49488;SDS011;35382;51.484;11.476;2023-07-13T00:39:53;3.90;;;2.53;;
49488;SDS011;35382;51.484;11.476;2023-07-13T00:41:34;4.43;;;2.20;;
49488;SDS011;35382;51.484;11.476;2023-07-13T00:43:18;5.68;;;2.38;;
49488;SDS011;35382;51.484;11.476;2023-07-13T00:46:54;6.78;;;2.85;;
49488;SDS011;35382;51.484;11.476;2023-07-13T00:48:38;6.35;;;2.45;;
49488;SDS011;35382;51.484;11.476;2023-07-13T00:50:20;7.60;;;2.38;;
49488;SDS011;35382;51.484;11.476;2023-07-13T00:52:04;4.45;;;2.28;;
49488;SDS011;35382;51.484;11.476;2023-07-13T00:53:47;6.70;;;2.50;;
49488;SDS011;35382;51.484;11.476;2023-07-13T00:55:28;4.57;;;2.30;;
49488;SDS011;35382;51.484;11.476;2023-07-13T00:57:11;5.72;;;2.35;;
49488;SDS011;35382;51.484;11.476;2023-07-13T00:58:55;4.45;;;2.53;;
49488;SDS011;35382;51.484;11.476;2023-07-13T01:00:38;6.82;;;2.60;;
49488;SDS011;35382;51.484;11.476;2023-07-13T01:02:19;4.22;;;2.20;;
49488;SDS011;35382;51.484;11.476;2023-07-13T01:04:02;6.03;;;2.13;;
49488;SDS011;35382;51.484;11.476;2023-07-13T01:05:43;5.40;;;2.38;;
49488;SDS011;35382;51.484;11.476;2023-07-13T01:07:28;4.53;;;2.15;;
49488;SDS011;35382;51.484;11.476;2023-07-13T01:09:12;6.18;;;3.17;;
49488;SDS011;35382;51.484;11.476;2023-07-13T01:10:54;4.50;;;2.28;;
49488;SDS011;35382;51.484;11.476;2023-07-13T01:12:36;4.53;;;2.28;;
49488;SDS011;35382;51.484;11.476;2023-07-13T01:14:17;5.00;;;2.30;;
49488;SDS011;35382;51.484;11.476;2023-07-13T01:15:58;5.25;;;2.42;;
49488;SDS011;35382;51.484;11.476;2023-07-13T01:17:45;7.95;;;2.05;;
49488;SDS011;35382;51.484;11.476;2023-07-13T01:19:36;4.82;;;2.03;;
49488;SDS011;35382;51.484;11.476;2023-07-13T01:21:20;5.38;;;2.40;;
49488;SDS011;35382;51.484;11.476;2023-07-13T01:23:03;6.97;;;2.28;;
49488;SDS011;35382;51.484;11.476;2023-07-13T01:24:47;4.97;;;2.13;;
49488;SDS011;35382;51.484;11.476;2023-07-13T01:26:30;5.47;;;2.42;;
49488;SDS011;35382;51.484;11.476;2023-07-13T01:28:11;4.28;;;2.20;;
49488;SDS011;35382;51.484;11.476;2023-07-13T01:29:52;4.10;;;2.63;;
49488;SDS011;35382;51.484;11.476;2023-07-13T01:31:33;4.15;;;2.10;;
49488;SDS011;35382;51.484;11.476;2023-07-13T01:33:16;5.13;;;2.30;;
49488;SDS011;35382;51.484;11.476;2023-07-13T01:34:58;5.32;;;2.50;;
49488;SDS011;35382;51.484;11.476;2023-07-13T01:36:39;6.82;;;2.58;;
49488;SDS011;35382;51.484;11.476;2023-07-13T01:38:21;5.03;;;2.60;;
49488;SDS011;35382;51.484;11.476;2023-07-13T01:40:04;5.43;;;2.50;;
49488;SDS011;35382;51.484;11.476;2023-07-13T01:41:45;5.18;;;2.30;;
49488;SDS011;35382;51.484;11.476;2023-07-13T01:43:29;5.60;;;2.20;;
49488;SDS011;35382;51.484;11.476;2023-07-13T01:45:10;5.10;;;2.25;;
49488;SDS011;35382;51.484;11.476;2023-07-13T01:46:51;4.93;;;2.80;;
49488;SDS011;35382;51.484;11.476;2023-07-13T01:48:32;4.38;;;2.15;;
49488;SDS011;35382;51.484;11.476;2023-07-13T01:50:13;4.20;;;2.20;;
49488;SDS011;35382;51.484;11.476;2023-07-13T01:51:53;5.32;;;2.22;;
49488;SDS011;35382;51.484;11.476;2023-07-13T01:53:34;4.05;;;2.20;;
49488;SDS011;35382;51.484;11.476;2023-07-13T01:55:16;5.03;;;2.22;;
49488;SDS011;35382;51.484;11.476;2023-07-13T01:56:57;4.18;;;2.40;;
49488;SDS011;35382;51.484;11.476;2023-07-13T01:58:38;4.38;;;2.20;;
49488;SDS011;35382;51.484;11.476;2023-07-13T02:00:20;5.63;;;2.95;;
49488;SDS011;35382;51.484;11.476;2023-07-13T02:02:03;4.18;;;2.30;;
49488;SDS011;35382;51.484;11.476;2023-07-13T02:03:45;4.10;;;2.42;;
49488;SDS011;35382;51.484;11.476;2023-07-13T02:05:27;4.82;;;2.35;;
49488;SDS011;35382;51.484;11.476;2023-07-13T02:07:08;5.90;;;2.38;;
49488;SDS011;35382;51.484;11.476;2023-07-13T02:08:49;5.35;;;2.50;;
49488;SDS011;35382;51.484;11.476;2023-07-13T02:10:30;6.80;;;2.38;;
49488;SDS011;35382;51.484;11.476;2023-07-13T02:12:11;5.45;;;2.70;;
49488;SDS011;35382;51.484;11.476;2023-07-13T02:13:52;6.35;;;2.42;;
49488;SDS011;35382;51.484;11.476;2023-07-13T02:15:33;4.13;;;2.33;;
49488;SDS011;35382;51.484;11.476;2023-07-13T02:17:14;5.43;;;2.70;;
49488;SDS011;35382;51.484;11.476;2023-07-13T02:18:55;4.45;;;2.40;;
49488;SDS011;35382;51.484;11.476;2023-07-13T02:20:36;4.85;;;2.55;;
49488;SDS011;35382;51.484;11.476;2023-07-13T02:22:17;5.55;;;2.80;;
49488;SDS011;35382;51.484;11.476;2023-07-13T02:23:59;6.15;;;2.83;;
49488;SDS011;35382;51.484;11.476;2023-07-13T02:25:40;6.35;;;2.97;;
49488;SDS011;35382;51.484;11.476;2023-07-13T02:27:23;5.05;;;2.83;;
49488;SDS011;35382;51.484;11.476;2023-07-13T02:29:04;4.70;;;2.97;;
49488;SDS011;35382;51.484;11.476;2023-07-13T02:30:45;5.28;;;2.70;;
49488;SDS011;35382;51.484;11.476;2023-07-13T02:32:26;6.80;;;2.95;;
49488;SDS011;35382;51.484;11.476;2023-07-13T02:34:07;6.28;;;3.10;;
49488;SDS011;35382;51.484;11.476;2023-07-13T02:35:50;5.55;;;2.90;;
49488;SDS011;35382;51.484;11.476;2023-07-13T02:37:31;5.70;;;2.75;;
49488;SDS011;35382;51.484;11.476;2023-07-13T02:39:12;4.65;;;2.78;;
49488;SDS011;35382;51.484;11.476;2023-07-13T02:40:54;7.40;;;2.90;;
49488;SDS011;35382;51.484;11.476;2023-07-13T02:42:35;7.25;;;3.08;;
49488;SDS011;35382;51.484;11.476;2023-07-13T02:44:16;4.55;;;2.58;;
49488;SDS011;35382;51.484;11.476;2023-07-13T02:45:58;6.13;;;3.42;;
49488;SDS011;35382;51.484;11.476;2023-07-13T02:47:44;4.75;;;2.70;;
49488;SDS011;35382;51.484;11.476;2023-07-13T02:49:25;6.40;;;3.03;;
49488;SDS011;35382;51.484;11.476;2023-07-13T02:51:07;6.07;;;2.80;;
49488;SDS011;35382;51.484;11.476;2023-07-13T02:52:48;5.82;;;2.78;;
49488;SDS011;35382;51.484;11.476;2023-07-13T02:54:29;4.18;;;2.45;;
49488;SDS011;35382;51.484;11.476;2023-07-13T02:56:10;4.93;;;3.20;;
49488;SDS011;35382;51.484;11.476;2023-07-13T02:57:51;5.75;;;2.90;;
49488;SDS011;35382;51.484;11.476;2023-07-13T02:59:32;7.68;;;3.38;;
49488;SDS011;35382;51.484;11.476;2023-07-13T03:01:13;6.32;;;3.05;;
49488;SDS011;35382;51.484;11.476;2023-07-13T03:02:59;5.05;;;2.72;;
49488;SDS011;35382;51.484;11.476;2023-07-13T03:04:41;6.10;;;3.40;;
49488;SDS011;35382;51.484;11.476;2023-07-13T03:06:22;5.65;;;2.85;;
49488;SDS011;35382;51.484;11.476;2023-07-13T03:08:06;4.82;;;2.90;;
49488;SDS011;35382;51.484;11.476;2023-07-13T03:09:47;6.47;;;3.50;;
49488;SDS011;35382;51.484;11.476;2023-07-13T03:11:28;6.88;;;3.15;;
49488;SDS011;35382;51.484;11.476;2023-07-13T03:13:18;7.45;;;3.15;;
49488;SDS011;35382;51.484;11.476;2023-07-13T03:14:59;7.57;;;3.05;;
49488;SDS011;35382;51.484;11.476;2023-07-13T03:16:41;8.23;;;3.10;;
49488;SDS011;35382;51.484;11.476;2023-07-13T03:18:23;5.75;;;2.90;;
49488;SDS011;35382;51.484;11.476;2023-07-13T03:20:04;5.20;;;3.10;;
49488;SDS011;35382;51.484;11.476;2023-07-13T03:21:47;6.93;;;3.28;;
49488;SDS011;35382;51.484;11.476;2023-07-13T03:23:28;6.97;;;3.25;;
49488;SDS011;35382;51.484;11.476;2023-07-13T03:25:09;6.10;;;3.40;;
49488;SDS011;35382;51.484;11.476;2023-07-13T03:26:51;6.65;;;3.60;;
49488;SDS011;35382;51.484;11.476;2023-07-13T03:28:33;4.47;;;2.90;;
49488;SDS011;35382;51.484;11.476;2023-07-13T03:30:14;5.60;;;3.13;;
49488;SDS011;35382;51.484;11.476;2023-07-13T03:31:57;4.90;;;3.20;;
49488;SDS011;35382;51.484;11.476;2023-07-13T03:33:38;6.72;;;3.22;;
49488;SDS011;35382;51.484;11.476;2023-07-13T03:35:20;6.25;;;3.40;;
49488;SDS011;35382;51.484;11.476;2023-07-13T03:37:01;6.68;;;3.50;;
49488;SDS011;35382;51.484;11.476;2023-07-13T03:38:42;6.85;;;3.38;;
49488;SDS011;35382;51.484;11.476;2023-07-13T03:40:23;5.18;;;3.10;;
49488;SDS011;35382;51.484;11.476;2023-07-13T03:42:06;7.38;;;3.42;;
49488;SDS011;35382;51.484;11.476;2023-07-13T03:43:47;7.18;;;3.67;;
49488;SDS011;35382;51.484;11.476;2023-07-13T03:45:30;7.40;;;3.40;;
49488;SDS011;35382;51.484;11.476;2023-07-13T03:47:11;6.07;;;3.63;;
49488;SDS011;35382;51.484;11.476;2023-07-13T03:48:52;4.95;;;3.40;;
49488;SDS011;35382;51.484;11.476;2023-07-13T03:50:33;5.35;;;2.90;;
49488;SDS011;35382;51.484;11.476;2023-07-13T03:52:14;7.13;;;3.55;;
49488;SDS011;35382;51.484;11.476;2023-07-13T03:53:56;8.50;;;3.60;;
49488;SDS011;35382;51.484;11.476;2023-07-13T03:55:37;7.07;;;3.88;;
49488;SDS011;35382;51.484;11.476;2023-07-13T03:57:18;7.35;;;3.38;;
49488;SDS011;35382;51.484;11.476;2023-07-13T03:58:59;6.68;;;3.72;;
49488;SDS011;35382;51.484;11.476;2023-07-13T04:00:40;6.25;;;3.30;;
49488;SDS011;35382;51.484;11.476;2023-07-13T04:02:21;6.15;;;3.25;;
49488;SDS011;35382;51.484;11.476;2023-07-13T04:04:02;5.75;;;3.50;;
49488;SDS011;35382;51.484;11.476;2023-07-13T04:05:44;7.03;;;3.60;;
49488;SDS011;35382;51.484;11.476;2023-07-13T04:07:27;6.15;;;3.00;;
49488;SDS011;35382;51.484;11.476;2023-07-13T04:09:08;7.45;;;3.40;;
49488;SDS011;35382;51.484;11.476;2023-07-13T04:10:50;5.45;;;3.50;;
49488;SDS011;35382;51.484;11.476;2023-07-13T04:12:31;5.80;;;3.20;;
49488;SDS011;35382;51.484;11.476;2023-07-13T04:14:12;7.63;;;3.67;;
49488;SDS011;35382;51.484;11.476;2023-07-13T04:15:53;4.68;;;3.03;;
49488;SDS011;35382;51.484;11.476;2023-07-13T04:17:35;7.47;;;3.10;;
49488;SDS011;35382;51.484;11.476;2023-07-13T04:19:16;5.25;;;2.95;;
49488;SDS011;35382;51.484;11.476;2023-07-13T04:20:56;7.85;;;3.80;;
49488;SDS011;35382;51.484;11.476;2023-07-13T04:22:38;4.90;;;2.90;;
49488;SDS011;35382;51.484;11.476;2023-07-13T04:24:18;5.05;;;2.90;;
49488;SDS011;35382;51.484;11.476;2023-07-13T04:25:59;7.07;;;3.45;;
49488;SDS011;35382;51.484;11.476;2023-07-13T04:27:40;6.43;;;3.53;;
49488;SDS011;35382;51.484;11.476;2023-07-13T04:29:21;4.15;;;3.05;;
49488;SDS011;35382;51.484;11.476;2023-07-13T04:31:02;5.32;;;3.15;;
49488;SDS011;35382;51.484;11.476;2023-07-13T04:32:43;4.93;;;3.10;;
49488;SDS011;35382;51.484;11.476;2023-07-13T04:34:24;5.28;;;3.33;;
49488;SDS011;35382;51.484;11.476;2023-07-13T04:36:05;7.75;;;3.10;;
49488;SDS011;35382;51.484;11.476;2023-07-13T04:37:50;5.65;;;3.30;;
49488;SDS011;35382;51.484;11.476;2023-07-13T04:39:31;4.72;;;3.10;;
49488;SDS011;35382;51.484;11.476;2023-07-13T04:41:15;5.30;;;3.20;;
49488;SDS011;35382;51.484;11.476;2023-07-13T04:42:56;6.90;;;2.92;;
49488;SDS011;35382;51.484;11.476;2023-07-13T04:44:37;6.70;;;3.22;;
49488;SDS011;35382;51.484;11.476;2023-07-13T04:46:18;5.78;;;2.75;;
49488;SDS011;35382;51.484;11.476;2023-07-13T04:47:59;6.53;;;3.13;;
49488;SDS011;35382;51.484;11.476;2023-07-13T04:49:40;4.53;;;2.60;;
49488;SDS011;35382;51.484;11.476;2023-07-13T04:51:21;6.10;;;3.17;;
49488;SDS011;35382;51.484;11.476;2023-07-13T04:53:02;5.90;;;3.20;;
49488;SDS011;35382;51.484;11.476;2023-07-13T04:54:44;8.15;;;3.30;;
49488;SDS011;35382;51.484;11.476;2023-07-13T04:56:25;10.00;;;3.25;;
49488;SDS011;35382;51.484;11.476;2023-07-13T04:58:06;6.25;;;3.03;;
49488;SDS011;35382;51.484;11.476;2023-07-13T04:59:47;6.30;;;2.95;;
49488;SDS011;35382;51.484;11.476;2023-07-13T05:01:28;5.38;;;2.92;;
49488;SDS011;35382;51.484;11.476;2023-07-13T05:03:09;6.75;;;3.10;;
49488;SDS011;35382;51.484;11.476;2023-07-13T05:04:50;5.03;;;3.10;;
49488;SDS011;35382;51.484;11.476;2023-07-13T05:06:31;3.70;;;2.42;;
49488;SDS011;35382;51.484;11.476;2023-07-13T05:08:12;6.78;;;2.67;;
49488;SDS011;35382;51.484;11.476;2023-07-13T05:09:53;5.28;;;2.83;;
49488;SDS011;35382;51.484;11.476;2023-07-13T05:11:34;3.70;;;2.72;;
49488;SDS011;35382;51.484;11.476;2023-07-13T05:13:15;4.38;;;2.72;;
49488;SDS011;35382;51.484;11.476;2023-07-13T05:14:56;6.10;;;3.20;;
49488;SDS011;35382;51.484;11.476;2023-07-13T05:16:37;4.85;;;3.22;;
49488;SDS011;35382;51.484;11.476;2023-07-13T05:18:18;6.00;;;3.00;;
49488;SDS011;35382;51.484;11.476;2023-07-13T05:19:58;7.03;;;3.08;;
49488;SDS011;35382;51.484;11.476;2023-07-13T05:21:40;6.63;;;3.20;;
49488;SDS011;35382;51.484;11.476;2023-07-13T05:23:21;5.95;;;2.80;;
49488;SDS011;35382;51.484;11.476;2023-07-13T05:25:04;6.13;;;3.15;;
49488;SDS011;35382;51.484;11.476;2023-07-13T05:26:48;8.07;;;2.90;;
49488;SDS011;35382;51.484;11.476;2023-07-13T05:28:29;7.05;;;2.70;;
49488;SDS011;35382;51.484;11.476;2023-07-13T05:30:11;3.30;;;2.70;;
49488;SDS011;35382;51.484;11.476;2023-07-13T05:31:52;5.32;;;2.58;;
49488;SDS011;35382;51.484;11.476;2023-07-13T05:33:33;4.35;;;2.35;;
49488;SDS011;35382;51.484;11.476;2023-07-13T05:35:14;6.72;;;2.67;;
49488;SDS011;35382;51.484;11.476;2023-07-13T05:36:55;4.07;;;2.50;;
49488;SDS011;35382;51.484;11.476;2023-07-13T05:38:36;7.57;;;2.33;;
49488;SDS011;35382;51.484;11.476;2023-07-13T05:40:17;4.68;;;2.65;;
49488;SDS011;35382;51.484;11.476;2023-07-13T05:41:58;6.82;;;3.28;;
49488;SDS011;35382;51.484;11.476;2023-07-13T05:43:39;6.07;;;2.83;;
49488;SDS011;35382;51.484;11.476;2023-07-13T05:45:20;5.90;;;2.75;;
49488;SDS011;35382;51.484;11.476;2023-07-13T05:47:01;6.05;;;2.80;;
49488;SDS011;35382;51.484;11.476;2023-07-13T05:48:41;5.65;;;2.60;;
49488;SDS011;35382;51.484;11.476;2023-07-13T05:50:25;4.35;;;2.38;;
49488;SDS011;35382;51.484;11.476;2023-07-13T05:52:06;4.80;;;2.60;;
49488;SDS011;35382;51.484;11.476;2023-07-13T05:53:50;6.18;;;2.65;;
49488;SDS011;35382;51.484;11.476;2023-07-13T05:55:31;4.40;;;2.28;;
49488;SDS011;35382;51.484;11.476;2023-07-13T05:57:11;6.95;;;2.58;;
49488;SDS011;35382;51.484;11.476;2023-07-13T05:58:52;4.07;;;2.50;;
49488;SDS011;35382;51.484;11.476;2023-07-13T06:00:33;5.47;;;2.65;;
49488;SDS011;35382;51.484;11.476;2023-07-13T06:02:14;5.00;;;2.63;;
49488;SDS011;35382;51.484;11.476;2023-07-13T06:03:55;7.00;;;2.80;;
49488;SDS011;35382;51.484;11.476;2023-07-13T06:05:36;6.60;;;2.72;;
49488;SDS011;35382;51.484;11.476;2023-07-13T06:07:18;3.55;;;2.15;;
49488;SDS011;35382;51.484;11.476;2023-07-13T06:08:59;4.70;;;2.40;;
49488;SDS011;35382;51.484;11.476;2023-07-13T06:10:43;5.57;;;2.53;;
49488;SDS011;35382;51.484;11.476;2023-07-13T06:12:24;5.55;;;2.40;;
49488;SDS011;35382;51.484;11.476;2023-07-13T06:14:05;5.88;;;2.28;;
49488;SDS011;35382;51.484;11.476;2023-07-13T06:15:49;4.88;;;2.20;;
49488;SDS011;35382;51.484;11.476;2023-07-13T06:17:30;4.78;;;2.25;;
49488;SDS011;35382;51.484;11.476;2023-07-13T06:19:11;6.45;;;2.42;;
49488;SDS011;35382;51.484;11.476;2023-07-13T06:20:54;6.53;;;2.70;;
49488;SDS011;35382;51.484;11.476;2023-07-13T06:22:35;5.05;;;2.10;;
49488;SDS011;35382;51.484;11.476;2023-07-13T06:24:16;5.85;;;1.73;;
49488;SDS011;35382;51.484;11.476;2023-07-13T06:25:59;4.68;;;1.85;;
49488;SDS011;35382;51.484;11.476;2023-07-13T06:27:40;4.82;;;2.00;;
49488;SDS011;35382;51.484;11.476;2023-07-13T06:29:21;3.22;;;1.60;;
49488;SDS011;35382;51.484;11.476;2023-07-13T06:31:04;5.28;;;1.45;;
49488;SDS011;35382;51.484;11.476;2023-07-13T06:32:46;4.07;;;1.40;;
49488;SDS011;35382;51.484;11.476;2023-07-13T06:34:27;6.15;;;2.08;;
49488;SDS011;35382;51.484;11.476;2023-07-13T06:36:08;3.97;;;1.33;;
49488;SDS011;35382;51.484;11.476;2023-07-13T06:37:49;6.05;;;2.10;;
49488;SDS011;35382;51.484;11.476;2023-07-13T06:39:31;4.97;;;1.85;;
49488;SDS011;35382;51.484;11.476;2023-07-13T06:41:18;4.97;;;1.53;;
49488;SDS011;35382;51.484;11.476;2023-07-13T06:43:01;5.70;;;1.80;;
49488;SDS011;35382;51.484;11.476;2023-07-13T06:44:42;4.22;;;1.55;;
49488;SDS011;35382;51.484;11.476;2023-07-13T06:46:23;6.10;;;1.80;;
49488;SDS011;35382;51.484;11.476;2023-07-13T06:48:04;7.93;;;1.95;;
49488;SDS011;35382;51.484;11.476;2023-07-13T06:49:45;5.13;;;1.60;;
49488;SDS011;35382;51.484;11.476;2023-07-13T06:51:26;6.82;;;1.90;;
49488;SDS011;35382;51.484;11.476;2023-07-13T06:53:07;4.85;;;1.70;;
49488;SDS011;35382;51.484;11.476;2023-07-13T06:54:47;5.53;;;1.83;;
49488;SDS011;35382;51.484;11.476;2023-07-13T06:56:29;5.20;;;1.63;;
49488;SDS011;35382;51.484;11.476;2023-07-13T06:58:10;3.15;;;1.73;;
49488;SDS011;35382;51.484;11.476;2023-07-13T06:59:53;5.53;;;1.60;;
49488;SDS011;35382;51.484;11.476;2023-07-13T07:01:34;6.40;;;1.90;;
49488;SDS011;35382;51.484;11.476;2023-07-13T07:03:19;5.75;;;2.08;;
49488;SDS011;35382;51.484;11.476;2023-07-13T07:05:00;6.13;;;2.20;;
49488;SDS011;35382;51.484;11.476;2023-07-13T07:06:42;6.40;;;1.92;;
49488;SDS011;35382;51.484;11.476;2023-07-13T07:08:23;4.57;;;1.85;;
49488;SDS011;35382;51.484;11.476;2023-07-13T07:10:04;6.70;;;2.78;;
49488;SDS011;35382;51.484;11.476;2023-07-13T07:11:45;7.13;;;2.00;;
49488;SDS011;35382;51.484;11.476;2023-07-13T07:13:26;3.85;;;1.65;;
49488;SDS011;35382;51.484;11.476;2023-07-13T07:15:09;8.10;;;2.17;;
49488;SDS011;35382;51.484;11.476;2023-07-13T07:16:50;6.95;;;2.38;;
49488;SDS011;35382;51.484;11.476;2023-07-13T07:18:31;5.72;;;2.22;;
49488;SDS011;35382;51.484;11.476;2023-07-13T07:20:14;8.07;;;2.45;;
49488;SDS011;35382;51.484;11.476;2023-07-13T07:21:55;6.07;;;2.08;;
49488;SDS011;35382;51.484;11.476;2023-07-13T07:23:36;8.52;;;2.00;;
49488;SDS011;35382;51.484;11.476;2023-07-13T07:25:17;4.30;;;2.30;;
49488;SDS011;35382;51.484;11.476;2023-07-13T07:26:58;7.22;;;2.30;;
49488;SDS011;35382;51.484;11.476;2023-07-13T07:28:41;4.85;;;2.10;;
49488;SDS011;35382;51.484;11.476;2023-07-13T07:30:22;8.40;;;2.10;;
49488;SDS011;35382;51.484;11.476;2023-07-13T07:32:03;6.32;;;2.08;;
49488;SDS011;35382;51.484;11.476;2023-07-13T07:33:45;7.38;;;2.05;;
49488;SDS011;35382;51.484;11.476;2023-07-13T07:35:26;6.22;;;2.13;;
49488;SDS011;35382;51.484;11.476;2023-07-13T07:37:09;6.55;;;2.38;;
49488;SDS011;35382;51.484;11.476;2023-07-13T07:38:53;5.40;;;2.33;;
49488;SDS011;35382;51.484;11.476;2023-07-13T07:40:36;4.53;;;1.85;;
49488;SDS011;35382;51.484;11.476;2023-07-13T07:42:18;7.88;;;2.90;;
49488;SDS011;35382;51.484;11.476;2023-07-13T07:43:58;6.60;;;2.58;;
49488;SDS011;35382;51.484;11.476;2023-07-13T07:45:39;7.10;;;2.30;;
49488;SDS011;35382;51.484;11.476;2023-07-13T07:47:21;6.22;;;2.58;;
49488;SDS011;35382;51.484;11.476;2023-07-13T07:49:04;6.57;;;2.35;;
49488;SDS011;35382;51.484;11.476;2023-07-13T07:50:44;6.63;;;2.70;;
49488;SDS011;35382;51.484;11.476;2023-07-13T07:52:28;8.05;;;2.75;;
49488;SDS011;35382;51.484;11.476;2023-07-13T07:54:09;9.48;;;2.50;;
49488;SDS011;35382;51.484;11.476;2023-07-13T07:55:50;6.03;;;2.42;;
49488;SDS011;35382;51.484;11.476;2023-07-13T07:57:32;8.95;;;3.22;;
49488;SDS011;35382;51.484;11.476;2023-07-13T07:59:12;6.65;;;2.40;;
49488;SDS011;35382;51.484;11.476;2023-07-13T08:00:53;6.18;;;2.45;;
49488;SDS011;35382;51.484;11.476;2023-07-13T08:02:34;8.27;;;2.20;;
49488;SDS011;35382;51.484;11.476;2023-07-13T08:04:15;6.03;;;2.10;;
49488;SDS011;35382;51.484;11.476;2023-07-13T08:05:57;6.00;;;2.53;;
49488;SDS011;35382;51.484;11.476;2023-07-13T08:07:40;7.03;;;2.22;;
49488;SDS011;35382;51.484;11.476;2023-07-13T08:09:21;5.65;;;2.28;;
49488;SDS011;35382;51.484;11.476;2023-07-13T08:11:04;5.85;;;2.28;;
49488;SDS011;35382;51.484;11.476;2023-07-13T08:12:47;3.88;;;2.00;;
49488;SDS011;35382;51.484;11.476;2023-07-13T08:14:28;7.97;;;2.88;;
49488;SDS011;35382;51.484;11.476;2023-07-13T08:16:12;6.05;;;2.00;;
49488;SDS011;35382;51.484;11.476;2023-07-13T08:17:53;5.85;;;2.47;;
49488;SDS011;35382;51.484;11.476;2023-07-13T08:19:34;6.88;;;2.30;;
49488;SDS011;35382;51.484;11.476;2023-07-13T08:21:15;4.60;;;2.25;;
49488;SDS011;35382;51.484;11.476;2023-07-13T08:22:56;7.30;;;2.33;;
49488;SDS011;35382;51.484;11.476;2023-07-13T08:24:37;7.63;;;2.10;;
49488;SDS011;35382;51.484;11.476;2023-07-13T08:26:19;8.02;;;2.67;;
49488;SDS011;35382;51.484;11.476;2023-07-13T08:28:00;6.82;;;2.80;;
49488;SDS011;35382;51.484;11.476;2023-07-13T08:29:43;5.10;;;2.38;;
49488;SDS011;35382;51.484;11.476;2023-07-13T08:31:24;6.20;;;1.95;;
49488;SDS011;35382;51.484;11.476;2023-07-13T08:33:07;4.57;;;1.70;;
49488;SDS011;35382;51.484;11.476;2023-07-13T08:34:48;6.70;;;2.25;;
49488;SDS011;35382;51.484;11.476;2023-07-13T08:36:32;6.30;;;2.20;;
49488;SDS011;35382;51.484;11.476;2023-07-13T08:38:14;5.50;;;2.42;;
49488;SDS011;35382;51.484;11.476;2023-07-13T08:39:55;5.70;;;2.13;;
49488;SDS011;35382;51.484;11.476;2023-07-13T08:41:37;5.25;;;1.95;;
49488;SDS011;35382;51.484;11.476;2023-07-13T08:43:20;7.72;;;2.33;;
49488;SDS011;35382;51.484;11.476;2023-07-13T08:45:14;7.30;;;2.28;;
49488;SDS011;35382;51.484;11.476;2023-07-13T08:47:02;4.10;;;1.83;;
49488;SDS011;35382;51.484;11.476;2023-07-13T08:48:49;6.72;;;2.42;;
49488;SDS011;35382;51.484;11.476;2023-07-13T08:50:34;9.48;;;2.38;;
49488;SDS011;35382;51.484;11.476;2023-07-13T08:54:14;4.88;;;2.17;;
49488;SDS011;35382;51.484;11.476;2023-07-13T08:56:00;4.82;;;2.33;;
49488;SDS011;35382;51.484;11.476;2023-07-13T08:57:42;6.82;;;2.15;;
49488;SDS011;35382;51.484;11.476;2023-07-13T08:59:26;4.82;;;2.15;;
49488;SDS011;35382;51.484;11.476;2023-07-13T09:01:24;7.25;;;2.22;;
49488;SDS011;35382;51.484;11.476;2023-07-13T09:03:16;5.95;;;2.15;;
49488;SDS011;35382;51.484;11.476;2023-07-13T09:05:18;6.82;;;2.03;;
49488;SDS011;35382;51.484;11.476;2023-07-13T09:10:46;6.30;;;2.30;;
49488;SDS011;35382;51.484;11.476;2023-07-13T09:14:30;6.15;;;2.30;;
49488;SDS011;35382;51.484;11.476;2023-07-13T09:16:18;3.90;;;2.20;;
49488;SDS011;35382;51.484;11.476;2023-07-13T09:18:43;5.03;;;2.13;;
49488;SDS011;35382;51.484;11.476;2023-07-13T09:20:14;5.80;;;1.98;;
49488;SDS011;35382;51.484;11.476;2023-07-13T09:22:04;4.75;;;1.80;;
49488;SDS011;35382;51.484;11.476;2023-07-13T09:26:14;5.00;;;2.03;;
49488;SDS011;35382;51.484;11.476;2023-07-13T09:28:00;4.30;;;2.00;;
49488;SDS011;35382;51.484;11.476;2023-07-13T09:32:09;4.80;;;1.83;;
49488;SDS011;35382;51.484;11.476;2023-07-13T09:33:57;5.25;;;2.00;;
49488;SDS011;35382;51.484;11.476;2023-07-13T09:35:38;5.25;;;1.73;;
49488;SDS011;35382;51.484;11.476;2023-07-13T09:37:20;3.97;;;2.03;;
49488;SDS011;35382;51.484;11.476;2023-07-13T09:39:05;4.70;;;1.77;;
49488;SDS011;35382;51.484;11.476;2023-07-13T09:42:44;5.93;;;2.10;;
49488;SDS011;35382;51.484;11.476;2023-07-13T09:44:33;5.38;;;1.65;;
49488;SDS011;35382;51.484;11.476;2023-07-13T09:46:20;6.57;;;2.25;;
49488;SDS011;35382;51.484;11.476;2023-07-13T09:48:03;4.18;;;1.73;;
49488;SDS011;35382;51.484;11.476;2023-07-13T09:51:40;3.75;;;1.50;;
49488;SDS011;35382;51.484;11.476;2023-07-13T09:53:24;3.45;;;1.60;;
49488;SDS011;35382;51.484;11.476;2023-07-13T09:55:32;2.92;;;1.20;;
